sensor_id;sensor_type;location;lat;lon;timestamp;P1;durP1;ratioP1;P2;durP2;ratioP2
1593;SDS011;790;47.000;16.084;2023-11-21T00:05:05;13.13;;;10.87;;
1593;SDS011;790;47.000;16.084;2023-11-21T00:16:25;12.00;;;10.13;;
1593;SDS011;790;47.000;16.084;2023-11-21T00:22:48;10.93;;;9.73;;
1593;SDS011;790;47.000;16.084;2023-11-21T00:29:10;10.60;;;9.43;;
1593;SDS011;790;47.000;16.084;2023-11-21T00:35:33;11.93;;;9.80;;
1593;SDS011;790;47.000;16.084;2023-11-21T00:41:56;11.37;;;9.40;;
1593;SDS011;790;47.000;16.084;2023-11-21T00:48:18;10.63;;;9.53;;
1593;SDS011;790;47.000;16.084;2023-11-21T00:54:41;14.30;;;9.77;;
1593;SDS011;790;47.000;16.084;2023-11-21T01:01:05;10.87;;;9.77;;
1593;SDS011;790;47.000;16.084;2023-11-21T01:07:27;10.93;;;9.43;;
1593;SDS011;790;47.000;16.084;2023-11-21T01:18:44;11.10;;;9.57;;
1593;SDS011;790;47.000;16.084;2023-11-21T01:25:06;11.23;;;10.13;;
1593;SDS011;790;47.000;16.084;2023-11-21T01:31:29;11.97;;;10.53;;
1593;SDS011;790;47.000;16.084;2023-11-21T01:37:52;11.30;;;10.10;;
1593;SDS011;790;47.000;16.084;2023-11-21T01:44:15;11.60;;;10.17;;
1593;SDS011;790;47.000;16.084;2023-11-21T01:50:39;12.23;;;10.93;;
1593;SDS011;790;47.000;16.084;2023-11-21T01:57:04;11.80;;;10.07;;
1593;SDS011;790;47.000;16.084;2023-11-21T02:03:27;13.23;;;11.40;;
1593;SDS011;790;47.000;16.084;2023-11-21T02:09:49;12.33;;;11.00;;
1593;SDS011;790;47.000;16.084;2023-11-21T02:21:08;15.03;;;12.60;;
1593;SDS011;790;47.000;16.084;2023-11-21T02:27:32;14.17;;;11.97;;
1593;SDS011;790;47.000;16.084;2023-11-21T02:33:55;15.03;;;11.83;;
1593;SDS011;790;47.000;16.084;2023-11-21T02:40:17;13.90;;;11.43;;
1593;SDS011;790;47.000;16.084;2023-11-21T02:46:41;14.63;;;11.73;;
1593;SDS011;790;47.000;16.084;2023-11-21T02:53:04;14.23;;;12.70;;
1593;SDS011;790;47.000;16.084;2023-11-21T02:59:27;15.77;;;13.33;;
1593;SDS011;790;47.000;16.084;2023-11-21T03:05:50;15.13;;;12.30;;
1593;SDS011;790;47.000;16.084;2023-11-21T03:12:13;16.00;;;12.03;;
1593;SDS011;790;47.000;16.084;2023-11-21T03:23:32;14.53;;;11.63;;
1593;SDS011;790;47.000;16.084;2023-11-21T03:29:55;14.43;;;11.83;;
1593;SDS011;790;47.000;16.084;2023-11-21T03:36:17;15.30;;;10.97;;
1593;SDS011;790;47.000;16.084;2023-11-21T03:42:40;14.00;;;12.07;;
1593;SDS011;790;47.000;16.084;2023-11-21T03:49:03;13.83;;;12.30;;
1593;SDS011;790;47.000;16.084;2023-11-21T03:55:26;12.37;;;11.17;;
1593;SDS011;790;47.000;16.084;2023-11-21T04:01:52;17.90;;;13.53;;
1593;SDS011;790;47.000;16.084;2023-11-21T04:08:16;14.37;;;12.87;;
1593;SDS011;790;47.000;16.084;2023-11-21T04:14:38;15.30;;;12.97;;
1593;SDS011;790;47.000;16.084;2023-11-21T04:25:36;15.60;;;14.00;;
1593;SDS011;790;47.000;16.084;2023-11-21T04:31:58;15.97;;;14.07;;
1593;SDS011;790;47.000;16.084;2023-11-21T04:38:20;45.10;;;33.00;;
1593;SDS011;790;47.000;16.084;2023-11-21T04:44:44;25.70;;;20.53;;
1593;SDS011;790;47.000;16.084;2023-11-21T04:51:07;22.40;;;17.80;;
1593;SDS011;790;47.000;16.084;2023-11-21T04:57:31;19.13;;;16.70;;
1593;SDS011;790;47.000;16.084;2023-11-21T05:03:55;25.70;;;20.90;;
1593;SDS011;790;47.000;16.084;2023-11-21T05:10:17;41.63;;;32.90;;
1593;SDS011;790;47.000;16.084;2023-11-21T05:16:40;31.90;;;25.33;;
1593;SDS011;790;47.000;16.084;2023-11-21T05:27:37;31.33;;;23.93;;
1593;SDS011;790;47.000;16.084;2023-11-21T05:33:59;34.13;;;24.43;;
1593;SDS011;790;47.000;16.084;2023-11-21T05:40:21;40.37;;;29.50;;
1593;SDS011;790;47.000;16.084;2023-11-21T05:46:47;30.83;;;26.73;;
1593;SDS011;790;47.000;16.084;2023-11-21T05:53:10;33.33;;;27.03;;
1593;SDS011;790;47.000;16.084;2023-11-21T05:59:32;25.97;;;22.77;;
1593;SDS011;790;47.000;16.084;2023-11-21T06:05:56;26.50;;;21.07;;
1593;SDS011;790;47.000;16.084;2023-11-21T06:12:18;22.43;;;19.43;;
1593;SDS011;790;47.000;16.084;2023-11-21T06:18:41;20.57;;;17.73;;
1593;SDS011;790;47.000;16.084;2023-11-21T06:29:28;20.27;;;16.60;;
1593;SDS011;790;47.000;16.084;2023-11-21T06:35:51;19.87;;;17.50;;
1593;SDS011;790;47.000;16.084;2023-11-21T06:42:13;20.73;;;17.30;;
1593;SDS011;790;47.000;16.084;2023-11-21T06:48:37;16.97;;;15.17;;
1593;SDS011;790;47.000;16.084;2023-11-21T06:55:10;17.53;;;15.73;;
1593;SDS011;790;47.000;16.084;2023-11-21T07:01:33;16.67;;;14.37;;
1593;SDS011;790;47.000;16.084;2023-11-21T07:07:59;21.37;;;18.53;;
1593;SDS011;790;47.000;16.084;2023-11-21T07:14:24;28.90;;;22.80;;
1593;SDS011;790;47.000;16.084;2023-11-21T07:20:47;23.03;;;20.13;;
1593;SDS011;790;47.000;16.084;2023-11-21T07:31:55;20.10;;;17.87;;
1593;SDS011;790;47.000;16.084;2023-11-21T07:38:17;23.53;;;18.13;;
1593;SDS011;790;47.000;16.084;2023-11-21T07:44:40;19.43;;;16.33;;
1593;SDS011;790;47.000;16.084;2023-11-21T07:51:04;17.83;;;16.00;;
1593;SDS011;790;47.000;16.084;2023-11-21T07:57:26;23.77;;;17.90;;
1593;SDS011;790;47.000;16.084;2023-11-21T08:03:48;17.33;;;15.53;;
1593;SDS011;790;47.000;16.084;2023-11-21T08:10:13;19.43;;;16.03;;
1593;SDS011;790;47.000;16.084;2023-11-21T08:16:37;20.07;;;15.77;;
1593;SDS011;790;47.000;16.084;2023-11-21T08:22:59;18.20;;;16.03;;
1593;SDS011;790;47.000;16.084;2023-11-21T08:34:08;18.20;;;16.30;;
1593;SDS011;790;47.000;16.084;2023-11-21T08:40:30;22.60;;;20.20;;
1593;SDS011;790;47.000;16.084;2023-11-21T08:46:52;20.63;;;18.43;;
1593;SDS011;790;47.000;16.084;2023-11-21T08:53:15;21.07;;;18.73;;
1593;SDS011;790;47.000;16.084;2023-11-21T08:59:37;29.80;;;26.57;;
1593;SDS011;790;47.000;16.084;2023-11-21T09:06:00;47.23;;;35.03;;
1593;SDS011;790;47.000;16.084;2023-11-21T09:12:24;36.63;;;30.80;;
1593;SDS011;790;47.000;16.084;2023-11-21T09:18:47;29.50;;;26.40;;
1593;SDS011;790;47.000;16.084;2023-11-21T09:25:10;25.43;;;22.73;;
1593;SDS011;790;47.000;16.084;2023-11-21T09:36:18;27.40;;;24.37;;
1593;SDS011;790;47.000;16.084;2023-11-21T09:42:43;25.53;;;22.13;;
1593;SDS011;790;47.000;16.084;2023-11-21T09:49:12;20.90;;;18.17;;
1593;SDS011;790;47.000;16.084;2023-11-21T09:55:37;16.60;;;14.90;;
1593;SDS011;790;47.000;16.084;2023-11-21T10:02:01;17.43;;;15.03;;
1593;SDS011;790;47.000;16.084;2023-11-21T10:08:23;15.47;;;13.97;;
1593;SDS011;790;47.000;16.084;2023-11-21T10:14:49;14.60;;;13.10;;
1593;SDS011;790;47.000;16.084;2023-11-21T10:21:14;16.53;;;13.87;;
1593;SDS011;790;47.000;16.084;2023-11-21T10:27:36;14.97;;;13.37;;
1593;SDS011;790;47.000;16.084;2023-11-21T10:38:56;15.87;;;14.17;;
1593;SDS011;790;47.000;16.084;2023-11-21T10:45:18;15.63;;;13.73;;
1593;SDS011;790;47.000;16.084;2023-11-21T10:51:43;15.33;;;12.33;;
1593;SDS011;790;47.000;16.084;2023-11-21T10:58:07;16.53;;;13.73;;
1593;SDS011;790;47.000;16.084;2023-11-21T11:04:31;13.87;;;12.57;;
1593;SDS011;790;47.000;16.084;2023-11-21T11:10:57;12.67;;;10.17;;
1593;SDS011;790;47.000;16.084;2023-11-21T11:17:21;10.50;;;9.50;;
1593;SDS011;790;47.000;16.084;2023-11-21T11:23:46;10.00;;;9.00;;
1593;SDS011;790;47.000;16.084;2023-11-21T11:30:22;8.47;;;7.63;;
1593;SDS011;790;47.000;16.084;2023-11-21T11:41:55;7.17;;;6.47;;
1593;SDS011;790;47.000;16.084;2023-11-21T11:48:18;6.70;;;5.93;;
1593;SDS011;790;47.000;16.084;2023-11-21T11:54:42;5.80;;;5.23;;
1593;SDS011;790;47.000;16.084;2023-11-21T12:01:08;7.10;;;6.40;;
1593;SDS011;790;47.000;16.084;2023-11-21T12:07:38;8.87;;;6.77;;
1593;SDS011;790;47.000;16.084;2023-11-21T12:14:05;6.63;;;6.03;;
1593;SDS011;790;47.000;16.084;2023-11-21T12:20:30;7.03;;;6.30;;
1593;SDS011;790;47.000;16.084;2023-11-21T12:26:58;6.00;;;5.30;;
1593;SDS011;790;47.000;16.084;2023-11-21T12:33:21;8.70;;;5.30;;
1593;SDS011;790;47.000;16.084;2023-11-21T12:44:41;7.33;;;5.97;;
1593;SDS011;790;47.000;16.084;2023-11-21T12:51:05;13.37;;;8.43;;
1593;SDS011;790;47.000;16.084;2023-11-21T12:57:27;7.93;;;6.97;;
1593;SDS011;790;47.000;16.084;2023-11-21T13:03:51;11.13;;;9.60;;
1593;SDS011;790;47.000;16.084;2023-11-21T13:10:13;8.93;;;7.80;;
1593;SDS011;790;47.000;16.084;2023-11-21T13:16:35;10.57;;;7.43;;
1593;SDS011;790;47.000;16.084;2023-11-21T13:23:00;7.30;;;6.63;;
1593;SDS011;790;47.000;16.084;2023-11-21T13:29:28;9.23;;;6.13;;
1593;SDS011;790;47.000;16.084;2023-11-21T13:35:50;8.33;;;6.87;;
1593;SDS011;790;47.000;16.084;2023-11-21T13:46:49;8.13;;;5.87;;
1593;SDS011;790;47.000;16.084;2023-11-21T13:53:13;6.90;;;5.97;;
1593;SDS011;790;47.000;16.084;2023-11-21T13:59:41;7.57;;;6.63;;
1593;SDS011;790;47.000;16.084;2023-11-21T14:06:06;8.20;;;5.07;;
1593;SDS011;790;47.000;16.084;2023-11-21T14:12:34;5.53;;;4.60;;
1593;SDS011;790;47.000;16.084;2023-11-21T14:18:58;5.27;;;4.67;;
1593;SDS011;790;47.000;16.084;2023-11-21T14:25:35;5.67;;;4.87;;
1593;SDS011;790;47.000;16.084;2023-11-21T14:31:59;7.03;;;4.93;;
1593;SDS011;790;47.000;16.084;2023-11-21T14:38:23;5.67;;;4.80;;
1593;SDS011;790;47.000;16.084;2023-11-21T14:49:41;9.37;;;4.53;;
1593;SDS011;790;47.000;16.084;2023-11-21T14:56:12;5.73;;;4.53;;
1593;SDS011;790;47.000;16.084;2023-11-21T15:02:42;6.23;;;4.90;;
1593;SDS011;790;47.000;16.084;2023-11-21T15:09:11;5.47;;;4.93;;
1593;SDS011;790;47.000;16.084;2023-11-21T15:15:56;7.07;;;5.47;;
1593;SDS011;790;47.000;16.084;2023-11-21T15:22:27;6.27;;;4.93;;
1593;SDS011;790;47.000;16.084;2023-11-21T15:28:51;6.87;;;5.57;;
1593;SDS011;790;47.000;16.084;2023-11-21T15:35:13;7.37;;;5.53;;
1593;SDS011;790;47.000;16.084;2023-11-21T15:41:38;13.33;;;9.40;;
1593;SDS011;790;47.000;16.084;2023-11-21T15:52:56;9.03;;;6.13;;
1593;SDS011;790;47.000;16.084;2023-11-21T15:59:18;8.67;;;5.83;;
1593;SDS011;790;47.000;16.084;2023-11-21T16:05:43;10.10;;;9.20;;
1593;SDS011;790;47.000;16.084;2023-11-21T16:12:07;8.00;;;5.70;;
1593;SDS011;790;47.000;16.084;2023-11-21T16:18:31;12.90;;;10.10;;
1593;SDS011;790;47.000;16.084;2023-11-21T16:24:53;11.13;;;9.97;;
1593;SDS011;790;47.000;16.084;2023-11-21T16:31:27;12.70;;;10.00;;
1593;SDS011;790;47.000;16.084;2023-11-21T16:37:50;11.87;;;7.57;;
1593;SDS011;790;47.000;16.084;2023-11-21T16:44:13;7.47;;;6.67;;
1593;SDS011;790;47.000;16.084;2023-11-21T16:55:33;7.73;;;6.57;;
1593;SDS011;790;47.000;16.084;2023-11-21T17:01:55;13.83;;;6.73;;
1593;SDS011;790;47.000;16.084;2023-11-21T17:08:18;6.37;;;5.77;;
1593;SDS011;790;47.000;16.084;2023-11-21T17:14:42;6.63;;;6.03;;
1593;SDS011;790;47.000;16.084;2023-11-21T17:21:06;10.73;;;6.63;;
1593;SDS011;790;47.000;16.084;2023-11-21T17:27:29;11.13;;;7.03;;
1593;SDS011;790;47.000;16.084;2023-11-21T17:33:54;7.00;;;6.30;;
1593;SDS011;790;47.000;16.084;2023-11-21T17:40:16;11.87;;;6.37;;
1593;SDS011;790;47.000;16.084;2023-11-21T17:46:39;11.40;;;6.07;;
1593;SDS011;790;47.000;16.084;2023-11-21T17:57:58;5.60;;;5.10;;
1593;SDS011;790;47.000;16.084;2023-11-21T18:04:20;5.83;;;5.10;;
1593;SDS011;790;47.000;16.084;2023-11-21T18:10:42;6.20;;;4.80;;
1593;SDS011;790;47.000;16.084;2023-11-21T18:17:08;5.80;;;5.30;;
1593;SDS011;790;47.000;16.084;2023-11-21T18:23:29;10.57;;;5.23;;
1593;SDS011;790;47.000;16.084;2023-11-21T18:29:51;6.53;;;5.80;;
1593;SDS011;790;47.000;16.084;2023-11-21T18:36:15;19.67;;;7.07;;
1593;SDS011;790;47.000;16.084;2023-11-21T18:42:37;7.47;;;6.77;;
1593;SDS011;790;47.000;16.084;2023-11-21T18:48:59;11.27;;;5.97;;
1593;SDS011;790;47.000;16.084;2023-11-21T19:00:18;6.43;;;5.83;;
1593;SDS011;790;47.000;16.084;2023-11-21T19:06:41;7.07;;;5.53;;
1593;SDS011;790;47.000;16.084;2023-11-21T19:13:06;5.93;;;5.37;;
1593;SDS011;790;47.000;16.084;2023-11-21T19:19:30;6.70;;;6.00;;
1593;SDS011;790;47.000;16.084;2023-11-21T19:25:52;13.30;;;7.77;;
1593;SDS011;790;47.000;16.084;2023-11-21T19:32:14;24.77;;;9.50;;
1593;SDS011;790;47.000;16.084;2023-11-21T19:38:39;15.77;;;12.83;;
1593;SDS011;790;47.000;16.084;2023-11-21T19:45:02;23.30;;;14.67;;
1593;SDS011;790;47.000;16.084;2023-11-21T19:51:24;43.87;;;16.63;;
1593;SDS011;790;47.000;16.084;2023-11-21T20:02:43;14.67;;;11.70;;
1593;SDS011;790;47.000;16.084;2023-11-21T20:09:05;11.77;;;10.13;;
1593;SDS011;790;47.000;16.084;2023-11-21T20:15:30;11.47;;;8.57;;
1593;SDS011;790;47.000;16.084;2023-11-21T20:21:54;11.13;;;7.90;;
1593;SDS011;790;47.000;16.084;2023-11-21T20:28:16;7.67;;;6.97;;
1593;SDS011;790;47.000;16.084;2023-11-21T20:34:38;6.50;;;5.90;;
1593;SDS011;790;47.000;16.084;2023-11-21T20:41:02;8.17;;;6.63;;
1593;SDS011;790;47.000;16.084;2023-11-21T20:47:26;8.27;;;7.47;;
1593;SDS011;790;47.000;16.084;2023-11-21T20:53:48;12.03;;;8.63;;
1593;SDS011;790;47.000;16.084;2023-11-21T21:05:07;11.00;;;9.23;;
1593;SDS011;790;47.000;16.084;2023-11-21T21:11:30;13.37;;;9.13;;
1593;SDS011;790;47.000;16.084;2023-11-21T21:17:52;11.37;;;10.23;;
1593;SDS011;790;47.000;16.084;2023-11-21T21:24:17;11.57;;;10.13;;
1593;SDS011;790;47.000;16.084;2023-11-21T21:30:40;12.03;;;10.70;;
1593;SDS011;790;47.000;16.084;2023-11-21T21:37:03;15.63;;;14.03;;
1593;SDS011;790;47.000;16.084;2023-11-21T21:43:27;11.67;;;10.53;;
1593;SDS011;790;47.000;16.084;2023-11-21T21:49:50;12.87;;;11.50;;
1593;SDS011;790;47.000;16.084;2023-11-21T21:56:19;12.77;;;11.57;;
1593;SDS011;790;47.000;16.084;2023-11-21T22:07:38;13.50;;;12.10;;
1593;SDS011;790;47.000;16.084;2023-11-21T22:14:01;13.13;;;11.93;;
1593;SDS011;790;47.000;16.084;2023-11-21T22:20:24;13.33;;;11.93;;
1593;SDS011;790;47.000;16.084;2023-11-21T22:26:48;13.57;;;10.97;;
1593;SDS011;790;47.000;16.084;2023-11-21T22:33:10;11.57;;;10.43;;
1593;SDS011;790;47.000;16.084;2023-11-21T22:39:33;10.17;;;9.27;;
1593;SDS011;790;47.000;16.084;2023-11-21T22:45:57;9.23;;;8.33;;
1593;SDS011;790;47.000;16.084;2023-11-21T22:52:19;8.57;;;7.83;;
1593;SDS011;790;47.000;16.084;2023-11-21T22:58:43;8.73;;;7.80;;
1593;SDS011;790;47.000;16.084;2023-11-21T23:10:01;8.43;;;7.47;;
1593;SDS011;790;47.000;16.084;2023-11-21T23:16:25;7.70;;;7.10;;
1593;SDS011;790;47.000;16.084;2023-11-21T23:22:48;6.77;;;6.27;;
1593;SDS011;790;47.000;16.084;2023-11-21T23:29:12;5.80;;;5.30;;
1593;SDS011;790;47.000;16.084;2023-11-21T23:35:34;5.27;;;4.30;;
1593;SDS011;790;47.000;16.084;2023-11-21T23:42:21;4.20;;;3.90;;
1593;SDS011;790;47.000;16.084;2023-11-21T23:48:57;3.93;;;3.47;;
1593;SDS011;790;47.000;16.084;2023-11-21T23:55:19;4.13;;;3.13;;
